createdAt,value
2022-11-19T00:00:00.302Z,10.90
2022-11-19T00:00:10.299Z,11.50
2022-11-19T00:00:20.270Z,12.00
2022-11-19T00:00:30.244Z,12.00
2022-11-19T00:00:40.236Z,11.90
2022-11-19T00:00:50.303Z,12.20
2022-11-19T00:01:00.291Z,12.20
2022-11-19T00:01:10.304Z,11.30
2022-11-19T00:01:20.263Z,11.10
2022-11-19T00:01:30.244Z,11.50
2022-11-19T00:01:40.326Z,12.10
2022-11-19T00:01:50.320Z,12.20
2022-11-19T00:02:00.413Z,11.70
2022-11-19T00:02:10.393Z,11.70
2022-11-19T00:02:20.311Z,11.30
2022-11-19T00:02:30.341Z,10.70
2022-11-19T00:02:40.273Z,10.30
2022-11-19T00:02:50.347Z,10.80
2022-11-19T00:03:00.221Z,11.70
2022-11-19T00:03:10.275Z,11.60
2022-11-19T00:03:20.225Z,11.40
2022-11-19T00:03:30.352Z,11.10
2022-11-19T00:03:40.307Z,11.30
2022-11-19T00:03:52.981Z,11.00
2022-11-19T00:04:00.240Z,11.50
2022-11-19T00:04:10.224Z,11.30
2022-11-19T00:04:20.288Z,11.20
2022-11-19T00:04:30.237Z,10.80
2022-11-19T00:04:40.222Z,10.50
2022-11-19T00:04:50.266Z,10.70
2022-11-19T00:05:00.221Z,10.60
2022-11-19T00:05:10.275Z,11.00
2022-11-19T00:05:20.350Z,10.70
2022-11-19T00:05:30.337Z,10.30
2022-11-19T00:05:40.244Z,10.20
2022-11-19T00:05:50.252Z,10.50
2022-11-19T00:06:00.298Z,11.00
2022-11-19T00:06:10.269Z,11.30
2022-11-19T00:06:20.354Z,10.70
2022-11-19T00:06:30.328Z,10.70
2022-11-19T00:06:40.257Z,10.30
2022-11-19T00:06:50.339Z,10.10
2022-11-19T00:07:00.344Z,9.90
2022-11-19T00:07:10.304Z,10.20
2022-11-19T00:07:20.350Z,11.30
2022-11-19T00:07:30.408Z,11.20
2022-11-19T00:07:40.342Z,11.20
2022-11-19T00:07:50.243Z,10.30
2022-11-19T00:08:00.289Z,10.70
2022-11-19T00:08:10.343Z,10.20
2022-11-19T00:08:20.347Z,10.40
2022-11-19T00:08:30.255Z,9.70
2022-11-19T00:08:40.297Z,10.10
2022-11-19T00:08:50.248Z,10.00
2022-11-19T00:09:00.327Z,11.00
2022-11-19T00:09:10.317Z,10.40
2022-11-19T00:09:20.719Z,10.40
2022-11-19T00:09:30.292Z,9.30
2022-11-19T00:09:40.272Z,9.50
2022-11-19T00:09:50.266Z,9.60
2022-11-19T00:10:00.348Z,10.10
2022-11-19T00:10:10.249Z,10.80
2022-11-19T00:10:20.407Z,11.40
2022-11-19T00:10:30.244Z,11.90
2022-11-19T00:10:40.311Z,11.60
2022-11-19T00:10:50.273Z,10.90
2022-11-19T00:11:02.354Z,10.50
2022-11-19T00:11:10.234Z,10.40
2022-11-19T00:11:20.258Z,10.20
2022-11-19T00:11:30.326Z,10.60
2022-11-19T00:11:40.323Z,10.30
2022-11-19T00:11:50.252Z,10.30
2022-11-19T00:12:00.332Z,10.40
2022-11-19T00:12:10.333Z,10.50
2022-11-19T00:12:20.349Z,10.50
2022-11-19T00:12:30.347Z,10.20
2022-11-19T00:12:40.246Z,10.60
2022-11-19T00:12:50.330Z,10.60
2022-11-19T00:13:00.231Z,10.50
2022-11-19T00:13:10.427Z,10.60
2022-11-19T00:13:20.306Z,11.20
2022-11-19T00:13:30.314Z,10.90
2022-11-19T00:13:40.274Z,10.60
2022-11-19T00:13:50.344Z,10.60
2022-11-19T00:14:00.296Z,10.90
2022-11-19T00:14:10.325Z,11.00
2022-11-19T00:14:20.328Z,10.70
2022-11-19T00:14:30.265Z,10.60
2022-11-19T00:14:40.292Z,10.60
2022-11-19T00:14:50.310Z,11.10
2022-11-19T00:15:00.357Z,11.00
2022-11-19T00:15:10.249Z,11.90
2022-11-19T00:15:20.284Z,11.20
2022-11-19T00:15:30.261Z,11.50
2022-11-19T00:15:40.238Z,10.90
2022-11-19T00:15:50.347Z,10.80
2022-11-19T00:16:00.240Z,10.40
2022-11-19T00:16:10.324Z,10.40
2022-11-19T00:16:20.251Z,10.40
2022-11-19T00:16:30.306Z,10.60
2022-11-19T00:16:40.311Z,10.80
2022-11-19T00:16:50.319Z,10.50
2022-11-19T00:17:00.352Z,10.40
2022-11-19T00:17:10.320Z,9.50
2022-11-19T00:17:20.239Z,9.50
2022-11-19T00:17:30.237Z,9.50
2022-11-19T00:17:40.253Z,9.60
2022-11-19T00:17:50.244Z,10.60
2022-11-19T00:18:00.268Z,10.40
2022-11-19T00:18:10.411Z,10.70
2022-11-19T00:18:20.327Z,9.70
2022-11-19T00:18:30.348Z,9.00
2022-11-19T00:18:40.337Z,8.30
2022-11-19T00:18:50.247Z,8.60
2022-11-19T00:19:00.261Z,9.30
2022-11-19T00:19:10.277Z,10.20
2022-11-19T00:19:20.651Z,10.20
2022-11-19T00:19:30.271Z,9.90
2022-11-19T00:19:40.321Z,10.00
2022-11-19T00:19:50.268Z,9.70
2022-11-19T00:20:00.328Z,10.00
2022-11-19T00:20:10.334Z,9.50
2022-11-19T00:20:20.283Z,9.40
2022-11-19T00:20:30.259Z,9.70
2022-11-19T00:20:40.235Z,9.80
2022-11-19T00:20:50.309Z,10.20
2022-11-19T00:21:00.306Z,9.40
2022-11-19T00:21:10.326Z,8.90
2022-11-19T00:21:20.284Z,8.50
2022-11-19T00:21:30.289Z,8.80
2022-11-19T00:21:40.280Z,9.10
2022-11-19T00:21:50.314Z,9.30
2022-11-19T00:22:00.238Z,9.60
2022-11-19T00:22:10.241Z,10.10
2022-11-19T00:22:20.312Z,10.40
2022-11-19T00:22:30.276Z,10.20
2022-11-19T00:22:40.346Z,10.30
2022-11-19T00:22:50.341Z,10.00
2022-11-19T00:23:00.237Z,9.80
2022-11-19T00:23:10.273Z,9.40
2022-11-19T00:23:20.271Z,9.80
2022-11-19T00:23:30.346Z,10.10
2022-11-19T00:23:40.329Z,10.40
2022-11-19T00:23:50.337Z,10.20
2022-11-19T00:24:00.249Z,10.80
2022-11-19T00:24:10.317Z,10.80
2022-11-19T00:24:20.311Z,10.90
2022-11-19T00:24:30.224Z,10.80
2022-11-19T00:24:40.291Z,11.00
2022-11-19T00:24:50.318Z,10.90
2022-11-19T00:25:00.375Z,10.90
2022-11-19T00:25:10.308Z,10.90
2022-11-19T00:25:20.294Z,11.50
2022-11-19T00:25:30.350Z,11.90
2022-11-19T00:25:40.332Z,12.50
2022-11-19T00:25:50.292Z,12.60
2022-11-19T00:26:00.308Z,12.00
2022-11-19T00:26:10.223Z,10.90
2022-11-19T00:26:20.256Z,10.90
2022-11-19T00:26:30.258Z,11.00
2022-11-19T00:26:40.252Z,12.00
2022-11-19T00:26:50.343Z,12.40
2022-11-19T00:27:00.290Z,12.70
2022-11-19T00:27:10.354Z,12.80
2022-11-19T00:27:20.378Z,12.30
2022-11-19T00:27:30.234Z,12.80
2022-11-19T00:27:40.226Z,12.30
2022-11-19T00:27:50.322Z,12.50
2022-11-19T00:28:00.260Z,12.00
2022-11-19T00:28:10.273Z,11.90
2022-11-19T00:28:20.340Z,12.20
2022-11-19T00:28:30.302Z,12.10
2022-11-19T00:28:40.280Z,12.40
2022-11-19T00:28:50.222Z,12.20
2022-11-19T00:29:00.262Z,12.20
2022-11-19T00:29:13.162Z,12.40
2022-11-19T00:29:20.427Z,12.40
2022-11-19T00:29:30.230Z,12.20
2022-11-19T00:29:40.299Z,11.90
2022-11-19T00:29:50.215Z,11.30
2022-11-19T00:30:00.233Z,11.10
2022-11-19T00:30:32.552Z,10.40
2022-11-19T00:30:46.221Z,10.90
2022-11-19T00:30:47.409Z,11.10
2022-11-19T00:30:47.962Z,11.40
2022-11-19T00:30:50.342Z,10.90
2022-11-19T00:31:00.235Z,10.70
2022-11-19T00:31:10.277Z,10.80
2022-11-19T00:31:20.267Z,11.30
2022-11-19T00:31:30.293Z,11.40
2022-11-19T00:31:40.239Z,10.80
2022-11-19T00:31:50.290Z,10.70
2022-11-19T00:32:00.304Z,10.20
2022-11-19T00:32:10.328Z,10.90
2022-11-19T00:32:20.230Z,11.30
2022-11-19T00:32:30.329Z,11.50
2022-11-19T00:32:40.342Z,11.20
2022-11-19T00:32:50.244Z,11.10
2022-11-19T00:33:00.293Z,11.30
2022-11-19T00:33:10.258Z,11.20
2022-11-19T00:33:20.260Z,11.30
2022-11-19T00:33:30.248Z,11.20
2022-11-19T00:33:40.215Z,11.10
2022-11-19T00:33:50.308Z,10.90
2022-11-19T00:34:00.278Z,10.60
2022-11-19T00:34:10.232Z,10.90
2022-11-19T00:34:20.330Z,10.80
2022-11-19T00:34:30.333Z,10.90
2022-11-19T00:34:40.299Z,11.50
2022-11-19T00:34:50.350Z,11.30
2022-11-19T00:35:00.301Z,11.10
2022-11-19T00:35:10.230Z,10.80
2022-11-19T00:35:20.230Z,10.70
2022-11-19T00:35:30.288Z,11.60
2022-11-19T00:35:40.339Z,10.80
2022-11-19T00:35:50.255Z,11.40
2022-11-19T00:36:00.353Z,11.20
2022-11-19T00:36:10.280Z,11.60
2022-11-19T00:36:20.300Z,11.20
2022-11-19T00:36:30.221Z,11.40
2022-11-19T00:36:40.325Z,11.20
2022-11-19T00:36:50.237Z,11.40
2022-11-19T00:37:00.240Z,11.00
2022-11-19T00:37:10.305Z,11.10
2022-11-19T00:37:20.305Z,11.40
2022-11-19T00:37:30.342Z,11.70
2022-11-19T00:37:40.321Z,11.60
2022-11-19T00:37:50.247Z,11.70
2022-11-19T00:38:00.286Z,11.40
2022-11-19T00:38:10.326Z,11.60
2022-11-19T00:38:20.252Z,11.40
2022-11-19T00:38:30.279Z,11.30
2022-11-19T00:38:40.323Z,11.10
2022-11-19T00:38:50.325Z,11.10
2022-11-19T00:39:00.284Z,11.10
2022-11-19T00:39:10.294Z,11.00
2022-11-19T00:39:20.436Z,10.80
2022-11-19T00:39:30.312Z,10.80
2022-11-19T00:39:40.349Z,10.70
2022-11-19T00:39:50.300Z,10.80
2022-11-19T00:40:00.291Z,10.90
2022-11-19T00:40:10.245Z,11.30
2022-11-19T00:40:20.301Z,11.20
2022-11-19T00:40:30.338Z,11.90
2022-11-19T00:40:40.250Z,12.20
2022-11-19T00:40:50.264Z,12.80
2022-11-19T00:41:00.245Z,12.80
2022-11-19T00:41:10.239Z,12.40
2022-11-19T00:41:20.344Z,12.20
2022-11-19T00:41:30.250Z,11.80
2022-11-19T00:41:40.276Z,12.30
2022-11-19T00:41:50.310Z,12.20
2022-11-19T00:42:00.293Z,11.90
2022-11-19T00:42:10.305Z,11.90
2022-11-19T00:42:20.246Z,11.80
2022-11-19T00:42:30.310Z,12.10
2022-11-19T00:42:40.305Z,12.30
2022-11-19T00:42:50.235Z,12.40
2022-11-19T00:43:00.271Z,12.60
2022-11-19T00:43:10.228Z,12.10
2022-11-19T00:43:20.313Z,12.10
2022-11-19T00:43:30.226Z,12.70
2022-11-19T00:43:40.303Z,12.90
2022-11-19T00:43:50.315Z,12.80
2022-11-19T00:44:00.272Z,12.60
2022-11-19T00:44:10.350Z,13.10
2022-11-19T00:44:20.335Z,13.80
2022-11-19T00:44:35.543Z,13.70
2022-11-19T00:44:40.284Z,13.40
2022-11-19T00:44:50.257Z,12.80
2022-11-19T00:45:00.337Z,11.80
2022-11-19T00:45:10.222Z,11.30
2022-11-19T00:45:20.262Z,11.30
2022-11-19T00:45:30.319Z,12.00
2022-11-19T00:45:40.241Z,12.30
2022-11-19T00:45:50.265Z,12.70
2022-11-19T00:46:00.340Z,13.30
2022-11-19T00:46:10.334Z,13.10
2022-11-19T00:46:20.287Z,13.20
2022-11-19T00:46:30.344Z,12.30
2022-11-19T00:46:40.267Z,12.80
2022-11-19T00:46:50.324Z,11.60
2022-11-19T00:47:00.299Z,12.00
2022-11-19T00:47:10.245Z,11.60
2022-11-19T00:47:20.323Z,12.70
2022-11-19T00:47:30.302Z,12.80
2022-11-19T00:47:40.255Z,13.50
2022-11-19T00:47:50.258Z,13.20
2022-11-19T00:48:00.340Z,13.00
2022-11-19T00:48:10.267Z,12.20
2022-11-19T00:48:20.314Z,11.50
2022-11-19T00:48:30.274Z,11.30
2022-11-19T00:48:40.337Z,11.60
2022-11-19T00:48:50.216Z,11.80
2022-11-19T00:49:00.296Z,11.80
2022-11-19T00:49:10.230Z,11.70
2022-11-19T00:49:20.622Z,11.80
2022-11-19T00:49:30.344Z,12.30
2022-11-19T00:49:40.223Z,12.60
2022-11-19T00:49:50.301Z,12.40
2022-11-19T00:50:00.277Z,12.40
2022-11-19T00:50:10.233Z,12.60
2022-11-19T00:50:20.266Z,12.70
2022-11-19T00:50:30.322Z,12.60
2022-11-19T00:50:40.238Z,12.20
2022-11-19T00:50:50.238Z,12.40
2022-11-19T00:51:00.304Z,12.30
2022-11-19T00:51:10.340Z,12.00
2022-11-19T00:51:20.321Z,11.90
2022-11-19T00:51:30.218Z,12.10
2022-11-19T00:51:40.330Z,12.70
2022-11-19T00:51:50.273Z,12.30
2022-11-19T00:52:00.346Z,12.30
2022-11-19T00:52:10.288Z,12.60
2022-11-19T00:52:20.244Z,12.90
2022-11-19T00:52:30.278Z,12.50
2022-11-19T00:52:40.298Z,12.10
2022-11-19T00:52:50.346Z,11.70
2022-11-19T00:53:00.290Z,12.40
2022-11-19T00:53:10.357Z,12.40
2022-11-19T00:53:20.248Z,13.10
2022-11-19T00:53:30.335Z,12.80
2022-11-19T00:53:40.267Z,13.40
2022-11-19T00:53:50.217Z,13.50
2022-11-19T00:54:00.287Z,13.60
2022-11-19T00:54:10.272Z,13.00
2022-11-19T00:54:20.357Z,13.00
2022-11-19T00:54:30.234Z,12.50
2022-11-19T00:54:40.296Z,12.50
2022-11-19T00:54:50.324Z,12.00
2022-11-19T00:55:00.259Z,12.10
2022-11-19T00:55:10.282Z,11.70
2022-11-19T00:55:20.318Z,11.60
2022-11-19T00:55:30.296Z,12.50
2022-11-19T00:55:40.230Z,12.90
2022-11-19T00:55:50.354Z,13.50
2022-11-19T00:56:00.227Z,12.90
2022-11-19T00:56:10.342Z,13.10
2022-11-19T00:56:20.328Z,14.20
2022-11-19T00:56:30.326Z,14.50
2022-11-19T00:56:40.296Z,14.70
2022-11-19T00:56:50.273Z,13.70
2022-11-19T00:57:00.287Z,14.10
2022-11-19T00:57:10.343Z,14.10
2022-11-19T00:57:20.321Z,14.40
2022-11-19T00:57:30.241Z,13.90
2022-11-19T00:57:40.338Z,13.50
2022-11-19T00:57:50.347Z,13.00
2022-11-19T00:58:00.302Z,13.20
2022-11-19T00:58:10.215Z,13.60
2022-11-19T00:58:20.222Z,13.40
2022-11-19T00:58:30.297Z,13.10
2022-11-19T00:58:40.311Z,12.40
2022-11-19T00:58:50.222Z,11.60
2022-11-19T00:59:00.249Z,10.90
2022-11-19T00:59:10.232Z,11.50
2022-11-19T00:59:20.711Z,12.30
2022-11-19T00:59:30.326Z,12.30
2022-11-19T00:59:40.300Z,12.20
2022-11-19T00:59:50.216Z,12.20
2022-11-19T01:00:00.350Z,12.40
2022-11-19T01:00:10.277Z,11.60
2022-11-19T01:00:20.249Z,11.10
2022-11-19T01:00:30.280Z,11.20
2022-11-19T01:00:40.218Z,11.80
2022-11-19T01:00:50.410Z,11.70
2022-11-19T01:01:00.342Z,11.30
2022-11-19T01:01:10.371Z,11.20
2022-11-19T01:01:20.360Z,11.10
2022-11-19T01:01:30.529Z,11.00
2022-11-19T01:01:40.418Z,10.70
2022-11-19T01:01:50.328Z,11.10
2022-11-19T01:02:00.226Z,11.40
2022-11-19T01:02:10.282Z,11.30
2022-11-19T01:02:20.257Z,11.50
2022-11-19T01:02:30.335Z,11.60
2022-11-19T01:02:40.266Z,11.60
2022-11-19T01:02:50.247Z,11.30
2022-11-19T01:03:00.318Z,11.70
2022-11-19T01:03:10.305Z,12.30
2022-11-19T01:03:20.302Z,12.60
2022-11-19T01:03:30.284Z,13.00
2022-11-19T01:03:40.246Z,12.80
2022-11-19T01:03:50.276Z,12.60
2022-11-19T01:04:00.221Z,11.90
2022-11-19T01:04:10.278Z,12.40
2022-11-19T01:04:20.310Z,12.50
2022-11-19T01:04:30.301Z,12.50
2022-11-19T01:04:40.288Z,12.00
2022-11-19T01:04:50.275Z,11.50
2022-11-19T01:05:00.287Z,11.40
2022-11-19T01:05:10.267Z,11.10
2022-11-19T01:05:20.274Z,12.10
2022-11-19T01:05:30.278Z,12.40
2022-11-19T01:05:40.348Z,12.90
2022-11-19T01:05:50.225Z,11.80
2022-11-19T01:06:00.317Z,11.50
2022-11-19T01:06:10.491Z,11.30
2022-11-19T01:06:20.270Z,11.40
2022-11-19T01:06:30.286Z,11.10
2022-11-19T01:06:40.232Z,10.80
2022-11-19T01:06:50.352Z,11.70
2022-11-19T01:07:00.343Z,11.90
2022-11-19T01:07:10.329Z,12.60
2022-11-19T01:07:20.324Z,12.70
2022-11-19T01:07:30.330Z,12.60
2022-11-19T01:07:40.414Z,12.00
2022-11-19T01:07:50.310Z,11.40
2022-11-19T01:08:00.232Z,11.50
2022-11-19T01:08:10.251Z,11.60
2022-11-19T01:08:20.215Z,12.10
2022-11-19T01:08:30.291Z,12.50
2022-11-19T01:08:40.287Z,13.10
2022-11-19T01:08:50.362Z,13.70
2022-11-19T01:09:00.341Z,13.80
2022-11-19T01:09:10.263Z,13.30
2022-11-19T01:09:20.662Z,12.70
2022-11-19T01:09:30.273Z,13.10
2022-11-19T01:09:40.290Z,14.20
2022-11-19T01:09:50.271Z,14.20
2022-11-19T01:10:00.302Z,14.20
2022-11-19T01:10:10.320Z,13.10
2022-11-19T01:10:20.344Z,12.90
2022-11-19T01:10:30.236Z,12.70
2022-11-19T01:10:40.310Z,12.00
2022-11-19T01:10:50.334Z,11.50
2022-11-19T01:11:00.234Z,10.90
2022-11-19T01:11:10.332Z,10.70
2022-11-19T01:11:20.317Z,11.20
2022-11-19T01:11:30.260Z,11.60
2022-11-19T01:11:40.291Z,11.70
2022-11-19T01:11:50.223Z,11.00
2022-11-19T01:12:00.234Z,11.00
2022-11-19T01:12:10.264Z,11.20
2022-11-19T01:12:20.312Z,11.40
2022-11-19T01:12:30.306Z,11.10
2022-11-19T01:12:40.304Z,11.40
2022-11-19T01:12:50.328Z,11.80
2022-11-19T01:13:00.226Z,11.70
2022-11-19T01:13:10.257Z,11.20
2022-11-19T01:13:20.301Z,11.00
2022-11-19T01:13:30.302Z,11.20
2022-11-19T01:13:40.330Z,11.30
2022-11-19T01:13:50.314Z,10.80
2022-11-19T01:14:00.273Z,11.00
2022-11-19T01:14:10.304Z,10.90
2022-11-19T01:14:20.283Z,10.80
2022-11-19T01:14:30.246Z,10.10
2022-11-19T01:14:40.232Z,10.30
2022-11-19T01:14:50.268Z,10.90
2022-11-19T01:15:00.226Z,11.20
2022-11-19T01:15:10.269Z,10.90
2022-11-19T01:15:20.291Z,10.70
2022-11-19T01:15:30.225Z,11.10
2022-11-19T01:15:40.299Z,11.70
2022-11-19T01:15:50.289Z,12.10
2022-11-19T01:16:00.243Z,12.70
2022-11-19T01:16:10.321Z,12.90
2022-11-19T01:16:20.265Z,13.30
2022-11-19T01:16:30.275Z,13.20
2022-11-19T01:16:40.256Z,13.40
2022-11-19T01:16:50.219Z,13.60
2022-11-19T01:17:00.304Z,13.10
2022-11-19T01:17:10.231Z,12.90
2022-11-19T01:17:20.335Z,12.30
2022-11-19T01:17:30.292Z,12.40
2022-11-19T01:17:40.283Z,12.50
2022-11-19T01:17:50.318Z,11.90
2022-11-19T01:18:00.270Z,12.00
2022-11-19T01:18:10.242Z,11.20
2022-11-19T01:18:20.315Z,11.90
2022-11-19T01:18:30.226Z,11.60
2022-11-19T01:18:40.235Z,12.60
2022-11-19T01:18:50.235Z,12.10
2022-11-19T01:19:00.281Z,12.20
2022-11-19T01:19:10.313Z,12.00
2022-11-19T01:19:20.667Z,12.10
2022-11-19T01:19:30.309Z,12.00
2022-11-19T01:19:40.337Z,12.00
2022-11-19T01:19:50.275Z,11.80
2022-11-19T01:20:00.393Z,12.00
2022-11-19T01:20:10.249Z,11.70
2022-11-19T01:20:20.392Z,12.00
2022-11-19T01:20:30.356Z,12.30
2022-11-19T01:20:40.382Z,12.30
2022-11-19T01:20:50.260Z,12.20
2022-11-19T01:21:00.343Z,12.00
2022-11-19T01:21:10.241Z,12.00
2022-11-19T01:21:20.285Z,12.00
2022-11-19T01:21:30.331Z,11.80
2022-11-19T01:21:40.222Z,11.40
2022-11-19T01:21:50.350Z,11.60
2022-11-19T01:22:00.244Z,12.10
2022-11-19T01:22:10.272Z,13.00
2022-11-19T01:22:20.325Z,12.50
2022-11-19T01:22:30.291Z,11.70
2022-11-19T01:22:40.255Z,10.90
2022-11-19T01:22:50.282Z,11.60
2022-11-19T01:23:00.316Z,12.20
2022-11-19T01:23:10.229Z,12.20
2022-11-19T01:23:20.230Z,11.90
2022-11-19T01:23:30.322Z,12.00
2022-11-19T01:23:40.323Z,12.80
2022-11-19T01:23:50.307Z,13.00
2022-11-19T01:24:00.249Z,12.70
2022-11-19T01:24:10.238Z,12.00
2022-11-19T01:24:20.302Z,11.80
2022-11-19T01:24:30.239Z,11.40
2022-11-19T01:24:40.318Z,11.80
2022-11-19T01:24:50.260Z,13.40
2022-11-19T01:25:00.326Z,15.30
2022-11-19T01:25:10.264Z,16.80
2022-11-19T01:25:20.324Z,16.60
2022-11-19T01:25:30.326Z,15.70
2022-11-19T01:25:40.324Z,14.50
2022-11-19T01:25:50.315Z,14.50
2022-11-19T01:26:00.312Z,15.50
2022-11-19T01:26:10.219Z,16.10
2022-11-19T01:26:20.316Z,14.90
2022-11-19T01:26:30.221Z,13.60
2022-11-19T01:26:45.296Z,12.20
2022-11-19T01:26:50.349Z,12.60
2022-11-19T01:27:00.331Z,13.10
2022-11-19T01:27:10.341Z,13.30
2022-11-19T01:27:20.298Z,12.10
2022-11-19T01:27:30.307Z,11.00
2022-11-19T01:27:40.314Z,11.60
2022-11-19T01:27:50.343Z,12.50
2022-11-19T01:28:00.265Z,12.50
2022-11-19T01:28:10.263Z,12.50
2022-11-19T01:28:20.308Z,12.10
2022-11-19T01:28:30.288Z,12.40
2022-11-19T01:28:40.348Z,11.50
2022-11-19T01:28:50.338Z,12.10
2022-11-19T01:29:00.337Z,11.70
2022-11-19T01:29:10.297Z,11.90
2022-11-19T01:29:20.561Z,11.60
2022-11-19T01:29:30.224Z,11.50
2022-11-19T01:29:40.236Z,11.80
2022-11-19T01:29:50.309Z,11.20
2022-11-19T01:30:00.282Z,11.20
2022-11-19T01:30:10.323Z,11.30
2022-11-19T01:30:20.242Z,11.00
2022-11-19T01:30:30.337Z,10.90
2022-11-19T01:30:40.348Z,10.70
2022-11-19T01:30:50.292Z,11.30
2022-11-19T01:31:00.262Z,11.20
2022-11-19T01:31:10.300Z,11.30
2022-11-19T01:31:20.274Z,11.30
2022-11-19T01:31:30.313Z,11.60
2022-11-19T01:31:40.329Z,11.50
2022-11-19T01:31:50.279Z,11.50
2022-11-19T01:32:00.329Z,11.20
2022-11-19T01:32:10.214Z,11.50
2022-11-19T01:32:20.263Z,11.40
2022-11-19T01:32:30.335Z,12.20
2022-11-19T01:32:40.397Z,12.60
2022-11-19T01:32:50.261Z,12.60
2022-11-19T01:33:00.284Z,12.10
2022-11-19T01:33:10.268Z,11.50
2022-11-19T01:33:20.328Z,11.50
2022-11-19T01:33:30.253Z,11.10
2022-11-19T01:33:40.239Z,11.20
2022-11-19T01:33:50.274Z,10.80
2022-11-19T01:34:00.253Z,11.30
2022-11-19T01:34:10.354Z,10.80
2022-11-19T01:34:20.282Z,11.10
2022-11-19T01:34:30.246Z,11.00
2022-11-19T01:34:40.322Z,11.50
2022-11-19T01:34:50.341Z,11.60
2022-11-19T01:35:00.249Z,11.10
2022-11-19T01:35:10.243Z,10.90
2022-11-19T01:35:20.314Z,10.80
2022-11-19T01:35:30.262Z,10.90
2022-11-19T01:35:40.293Z,11.70
2022-11-19T01:35:50.228Z,12.00
2022-11-19T01:36:00.339Z,11.90
2022-11-19T01:36:10.313Z,11.30
2022-11-19T01:36:20.297Z,11.00
2022-11-19T01:36:30.311Z,11.20
2022-11-19T01:36:40.273Z,11.30
2022-11-19T01:36:50.249Z,11.30
2022-11-19T01:37:00.302Z,10.80
2022-11-19T01:37:10.292Z,11.00
2022-11-19T01:37:20.348Z,11.10
2022-11-19T01:37:30.292Z,11.40
2022-11-19T01:37:40.355Z,10.70
2022-11-19T01:37:50.292Z,11.10
2022-11-19T01:38:00.248Z,11.20
2022-11-19T01:38:10.284Z,11.50
2022-11-19T01:38:20.296Z,11.40
2022-11-19T01:38:30.314Z,11.80
2022-11-19T01:38:40.271Z,11.70
2022-11-19T01:38:50.241Z,11.60
2022-11-19T01:39:00.278Z,11.30
2022-11-19T01:39:10.281Z,11.30
2022-11-19T01:39:20.561Z,11.40
2022-11-19T01:39:30.273Z,11.50
2022-11-19T01:39:40.340Z,11.80
2022-11-19T01:39:50.308Z,11.40
2022-11-19T01:40:00.239Z,11.60
2022-11-19T01:40:10.246Z,11.10
2022-11-19T01:40:20.294Z,11.20
2022-11-19T01:40:30.229Z,11.10
2022-11-19T01:40:40.309Z,10.80
2022-11-19T01:40:50.276Z,10.70
2022-11-19T01:41:00.315Z,10.30
2022-11-19T01:41:10.259Z,10.90
2022-11-19T01:41:20.313Z,10.90
2022-11-19T01:41:30.250Z,11.20
2022-11-19T01:41:40.299Z,11.10
2022-11-19T01:41:50.278Z,11.10
2022-11-19T01:42:00.294Z,11.30
2022-11-19T01:42:10.220Z,11.80
2022-11-19T01:42:20.248Z,11.60
2022-11-19T01:42:30.280Z,10.70
2022-11-19T01:42:40.338Z,10.30
2022-11-19T01:42:50.237Z,10.40
2022-11-19T01:43:00.228Z,11.10
2022-11-19T01:43:10.221Z,10.70
2022-11-19T01:43:20.244Z,11.20
2022-11-19T01:43:30.281Z,11.00
2022-11-19T01:43:40.219Z,11.70
2022-11-19T01:43:50.296Z,11.30
2022-11-19T01:44:00.306Z,11.50
2022-11-19T01:44:10.226Z,11.40
2022-11-19T01:44:20.317Z,12.00
2022-11-19T01:44:30.221Z,12.00
2022-11-19T01:44:40.215Z,12.20
2022-11-19T01:44:50.222Z,11.40
2022-11-19T01:45:00.246Z,10.80
2022-11-19T01:45:10.251Z,10.20
2022-11-19T01:45:20.284Z,10.80
2022-11-19T01:45:30.241Z,10.80
2022-11-19T01:45:40.295Z,11.50
2022-11-19T01:45:50.239Z,11.60
2022-11-19T01:46:00.339Z,12.10
2022-11-19T01:46:10.227Z,11.50
2022-11-19T01:46:20.323Z,11.00
2022-11-19T01:46:30.320Z,10.70
2022-11-19T01:46:40.283Z,11.00
2022-11-19T01:46:50.290Z,11.30
2022-11-19T01:47:00.281Z,11.20
2022-11-19T01:47:10.266Z,11.10
2022-11-19T01:47:20.258Z,11.40
2022-11-19T01:47:30.262Z,11.50
2022-11-19T01:47:40.233Z,11.10
2022-11-19T01:47:50.234Z,10.60
2022-11-19T01:48:00.336Z,10.80
2022-11-19T01:48:10.226Z,11.40
2022-11-19T01:48:20.235Z,11.90
2022-11-19T01:48:30.275Z,11.80
2022-11-19T01:48:40.372Z,11.50
2022-11-19T01:48:50.330Z,10.70
2022-11-19T01:49:00.351Z,10.90
2022-11-19T01:49:10.242Z,11.10
2022-11-19T01:49:20.707Z,11.60
2022-11-19T01:49:30.273Z,11.10
2022-11-19T01:49:40.303Z,11.50
2022-11-19T01:49:50.315Z,11.60
2022-11-19T01:50:00.218Z,11.20
2022-11-19T01:50:10.320Z,10.90
2022-11-19T01:50:20.236Z,10.40
2022-11-19T01:50:30.235Z,10.80
2022-11-19T01:50:40.312Z,10.10
2022-11-19T01:50:50.334Z,10.40
2022-11-19T01:51:00.313Z,11.30
2022-11-19T01:51:10.279Z,11.50
2022-11-19T01:51:20.251Z,12.10
2022-11-19T01:51:30.268Z,11.50
2022-11-19T01:51:40.308Z,11.30
2022-11-19T01:51:50.249Z,10.60
2022-11-19T01:52:00.236Z,10.60
2022-11-19T01:52:10.346Z,11.10
2022-11-19T01:52:20.253Z,11.30
2022-11-19T01:52:30.275Z,10.90
2022-11-19T01:52:40.285Z,10.90
2022-11-19T01:52:50.304Z,10.80
2022-11-19T01:53:00.234Z,11.30
2022-11-19T01:53:10.318Z,11.70
2022-11-19T01:53:20.227Z,11.40
2022-11-19T01:53:30.232Z,11.20
2022-11-19T01:53:40.231Z,11.20
2022-11-19T01:53:50.310Z,11.80
2022-11-19T01:54:00.324Z,11.50
2022-11-19T01:54:10.346Z,11.60
2022-11-19T01:54:20.269Z,11.90
2022-11-19T01:54:30.341Z,12.70
2022-11-19T01:54:40.238Z,12.40
2022-11-19T01:54:50.337Z,12.10
2022-11-19T01:55:00.269Z,11.80
2022-11-19T01:55:10.250Z,11.20
2022-11-19T01:55:20.239Z,11.10
2022-11-19T01:55:30.302Z,11.00
2022-11-19T01:55:40.345Z,11.30
2022-11-19T01:55:50.237Z,10.80
2022-11-19T01:56:00.254Z,10.40
2022-11-19T01:56:10.244Z,10.50
2022-11-19T01:56:20.306Z,11.40
2022-11-19T01:56:30.253Z,11.70
2022-11-19T01:56:40.320Z,11.50
2022-11-19T01:56:50.325Z,10.90
2022-11-19T01:57:00.349Z,11.00
2022-11-19T01:57:10.242Z,11.10
2022-11-19T01:57:20.218Z,10.90
2022-11-19T01:57:30.291Z,10.90
2022-11-19T01:57:40.340Z,11.10
2022-11-19T01:57:50.292Z,11.00
2022-11-19T01:58:00.298Z,11.00
2022-11-19T01:58:10.247Z,11.00
2022-11-19T01:58:20.287Z,11.40
2022-11-19T01:58:30.264Z,11.10
2022-11-19T01:58:40.232Z,10.60
2022-11-19T01:58:50.268Z,10.10
2022-11-19T01:59:00.254Z,10.00
2022-11-19T01:59:10.338Z,10.10
2022-11-19T01:59:20.755Z,10.60
2022-11-19T01:59:30.288Z,11.20
2022-11-19T01:59:40.245Z,11.50
2022-11-19T01:59:50.295Z,11.70
2022-11-19T02:00:00.248Z,11.10
2022-11-19T02:00:10.329Z,11.00
2022-11-19T02:00:20.288Z,11.50
2022-11-19T02:00:30.230Z,11.60
2022-11-19T02:00:40.251Z,11.00
2022-11-19T02:00:50.314Z,10.70
2022-11-19T02:01:00.329Z,11.10
2022-11-19T02:01:10.442Z,11.70
2022-11-19T02:01:20.380Z,11.20
2022-11-19T02:01:30.367Z,11.20
2022-11-19T02:01:40.425Z,11.10
2022-11-19T02:01:50.327Z,11.20
2022-11-19T02:02:00.320Z,11.50
2022-11-19T02:02:10.318Z,11.80
2022-11-19T02:02:20.325Z,11.60
2022-11-19T02:02:30.341Z,10.80
2022-11-19T02:02:40.350Z,10.50
2022-11-19T02:02:50.278Z,10.60
2022-11-19T02:03:00.312Z,10.10
2022-11-19T02:03:10.291Z,10.20
2022-11-19T02:03:20.296Z,9.90
2022-11-19T02:03:30.293Z,10.30
2022-11-19T02:03:40.340Z,9.90
2022-11-19T02:03:50.237Z,10.40
2022-11-19T02:04:00.298Z,10.20
2022-11-19T02:04:10.277Z,10.50
2022-11-19T02:04:20.348Z,10.20
2022-11-19T02:04:30.257Z,10.10
2022-11-19T02:04:40.262Z,10.10
2022-11-19T02:04:50.235Z,10.30
2022-11-19T02:05:00.341Z,10.70
2022-11-19T02:05:10.262Z,11.00
2022-11-19T02:05:20.320Z,10.80
2022-11-19T02:05:30.355Z,11.10
2022-11-19T02:05:40.393Z,10.70
2022-11-19T02:05:50.304Z,11.40
2022-11-19T02:06:00.296Z,11.10
2022-11-19T02:06:10.353Z,11.10
2022-11-19T02:06:20.346Z,11.00
2022-11-19T02:06:30.318Z,10.70
2022-11-19T02:06:40.237Z,10.80
2022-11-19T02:06:50.276Z,10.90
2022-11-19T02:07:00.383Z,11.20
2022-11-19T02:07:10.356Z,11.20
2022-11-19T02:07:20.303Z,11.40
2022-11-19T02:07:30.370Z,11.10
2022-11-19T02:07:40.302Z,11.70
2022-11-19T02:07:50.272Z,11.50
2022-11-19T02:08:00.304Z,11.60
2022-11-19T02:08:10.309Z,11.40
2022-11-19T02:08:20.249Z,10.70
2022-11-19T02:08:30.298Z,10.50
2022-11-19T02:08:40.234Z,10.50
2022-11-19T02:08:50.272Z,11.10